Time;durP1;ratioP1;P1;durP2;ratioP2;P2;SDS_P1;SDS_P2;PMS_P1;PMS_P2;Temp;Humidity;BMP_temperature;BMP_pressure;BME280_temperature;BME280_humidity;BME280_pressure;Samples;Min_cycle;Max_cycle;Signal;HPM_P1;HPM_P2
2022/05/18 00:01:48;;;;;;;6.10;4.47;;;15.30;99.90;;;;;;5030060;28;20195;-53
2022/05/18 00:04:13;;;;;;;5.43;3.97;;;15.30;99.90;;;;;;5030110;28;20664;-53
2022/05/18 00:06:39;;;;;;;3.87;3.47;;;15.20;91.30;;;;;;5031759;28;20191;-53
2022/05/18 00:09:05;;;;;;;6.63;3.40;;;15.10;1.00;;;;;;5029795;28;20198;-53
2022/05/18 00:11:32;;;;;;;4.37;3.47;;;15.10;1.00;;;;;;5030680;28;20230;-52
2022/05/18 00:13:57;;;;;;;5.80;3.33;;;15.00;1.00;;;;;;5030647;28;20270;-53
2022/05/18 00:16:25;;;;;;;6.03;2.63;;;14.90;1.00;;;;;;5030817;28;20596;-53
2022/05/18 00:18:51;;;;;;;3.13;2.87;;;14.90;1.00;;;;;;5023008;28;20191;-53
2022/05/18 00:21:17;;;;;;;4.33;2.40;;;14.90;1.00;;;;;;5031009;28;20433;-52
2022/05/18 00:23:43;;;;;;;3.30;2.43;;;14.90;1.00;;;;;;5024373;28;20429;-52
2022/05/18 00:26:09;;;;;;;2.43;2.20;;;14.90;1.00;;;;;;5030644;28;20191;-52
2022/05/18 00:28:34;;;;;;;2.30;1.97;;;14.80;1.00;;;;;;5031108;28;20195;-52
2022/05/18 00:31:00;;;;;;;3.57;2.40;;;14.80;99.90;;;;;;5030791;28;20186;-52
2022/05/18 00:33:27;;;;;;;2.40;2.10;;;14.70;99.90;;;;;;5028208;28;20215;-52
2022/05/18 00:35:53;;;;;;;5.83;2.47;;;14.60;99.90;;;;;;5027050;28;20429;-52
2022/05/18 00:38:19;;;;;;;8.80;2.20;;;14.60;99.90;;;;;;5030733;28;20504;-52
2022/05/18 00:40:47;;;;;;;2.23;1.97;;;14.60;99.90;;;;;;5045987;28;20278;-53
2022/05/18 00:43:20;;;;;;;3.90;2.00;;;14.50;99.90;;;;;;5028233;28;21051;-53
2022/05/18 00:45:46;;;;;;;4.30;1.90;;;14.50;99.90;;;;;;5032324;28;20960;-52
2022/05/18 00:48:12;;;;;;;2.90;2.20;;;14.50;99.90;;;;;;5034583;28;20495;-53
2022/05/18 00:50:40;;;;;;;6.33;2.00;;;14.40;99.90;;;;;;5030087;28;20452;-52
2022/05/18 00:53:09;;;;;;;2.93;1.67;;;14.40;99.90;;;;;;5028685;28;20577;-52
2022/05/18 00:55:39;;;;;;;4.33;2.17;;;14.30;99.90;;;;;;5028591;28;20764;-52
2022/05/18 00:58:11;;;;;;;3.97;1.80;;;14.30;99.90;;;;;;5029610;28;20992;-57
2022/05/18 01:00:38;;;;;;;4.50;1.63;;;14.30;99.90;;;;;;5028685;28;20472;-53
2022/05/18 01:03:36;;;;;;;4.17;1.90;;;14.20;99.90;;;;;;5030177;28;20511;-52
2022/05/18 01:06:19;;;;;;;7.10;1.70;;;14.10;99.90;;;;;;5020673;28;20438;-52
2022/05/18 01:08:54;;;;;;;4.43;2.03;;;14.10;99.90;;;;;;5026032;28;20464;-53
2022/05/18 01:11:20;;;;;;;5.30;2.00;;;14.10;99.90;;;;;;5029877;28;20943;-57
2022/05/18 01:13:46;;;;;;;2.30;1.50;;;14.00;99.90;;;;;;5029251;28;20442;-55
2022/05/18 01:16:13;;;;;;;2.23;1.67;;;14.00;99.90;;;;;;5029805;28;20281;-56
2022/05/18 01:18:39;;;;;;;8.50;2.30;;;13.90;99.90;;;;;;5029915;28;20433;-57
2022/05/18 01:21:05;;;;;;;1.90;1.57;;;14.00;99.90;;;;;;5045332;28;20465;-56
2022/05/18 01:23:59;;;;;;;4.63;2.03;;;13.90;99.90;;;;;;5032985;28;20461;-54
2022/05/18 01:26:44;;;;;;;1.73;1.40;;;13.90;99.90;;;;;;5027500;28;20524;-56
2022/05/18 01:29:10;;;;;;;3.53;1.60;;;13.80;99.90;;;;;;5027083;28;20434;-56
2022/05/18 01:31:50;;;;;;;3.00;1.70;;;13.90;99.90;;;;;;5029339;28;20473;-56
2022/05/18 01:34:19;;;;;;;3.30;1.80;;;13.90;99.90;;;;;;5027938;28;20863;-55
2022/05/18 01:36:45;;;;;;;4.83;1.70;;;13.80;99.90;;;;;;5028720;28;20422;-55
2022/05/18 01:39:17;;;;;;;3.07;1.57;;;13.80;99.90;;;;;;5029348;28;20483;-56
2022/05/18 01:42:06;;;;;;;7.90;2.00;;;13.80;99.90;;;;;;5028837;28;20495;-56
2022/05/18 01:44:37;;;;;;;3.23;1.67;;;13.70;99.90;;;;;;5024701;28;20442;-56
2022/05/18 01:47:03;;;;;;;2.43;1.90;;;13.70;99.90;;;;;;5028359;28;20433;-56
2022/05/18 01:49:28;;;;;;;2.13;1.70;;;13.70;99.90;;;;;;5029270;28;20484;-57
2022/05/18 01:51:57;;;;;;;6.20;1.83;;;13.60;99.90;;;;;;5019362;28;20210;-57
2022/05/18 01:54:23;;;;;;;2.40;1.47;;;13.70;99.90;;;;;;5028821;28;20910;-60
2022/05/18 01:56:48;;;;;;;3.03;1.77;;;13.70;99.90;;;;;;5029139;28;20434;-54
2022/05/18 01:59:14;;;;;;;4.20;1.63;;;13.60;99.90;;;;;;5029013;28;20187;-56
2022/05/18 02:01:40;;;;;;;2.20;1.50;;;13.60;99.90;;;;;;5024708;28;20183;-56
2022/05/18 02:04:05;;;;;;;2.33;1.20;;;13.60;99.90;;;;;;5029217;28;20249;-56
2022/05/18 02:06:33;;;;;;;5.70;1.97;;;13.50;99.90;;;;;;5029269;28;20274;-56
2022/05/18 02:08:59;;;;;;;3.37;1.60;;;13.50;99.90;;;;;;5029155;28;20438;-56
2022/05/18 02:11:25;;;;;;;3.53;2.03;;;13.40;99.90;;;;;;5028569;28;20485;-55
2022/05/18 02:13:51;;;;;;;3.73;1.50;;;13.40;99.90;;;;;;5027794;28;20440;-56
2022/05/18 02:16:18;;;;;;;2.40;1.50;;;13.50;99.90;;;;;;5028462;28;20190;-56
2022/05/18 02:18:43;;;;;;;5.43;1.63;;;13.40;99.90;;;;;;5028094;28;20430;-56
2022/05/18 02:21:11;;;;;;;3.53;1.70;;;13.40;99.90;;;;;;5029437;28;20427;-57
2022/05/18 02:23:38;;;;;;;2.27;1.70;;;13.30;99.90;;;;;;5028557;28;20202;-56
2022/05/18 02:26:21;;;;;;;3.43;1.60;;;13.30;99.90;;;;;;5028551;28;20512;-56
2022/05/18 02:28:47;;;;;;;3.43;1.80;;;13.30;99.90;;;;;;5031827;28;20492;-57
2022/05/18 02:31:13;;;;;;;1.60;1.40;;;13.30;99.90;;;;;;5029260;28;20437;-56
2022/05/18 02:33:40;;;;;;;4.90;1.77;;;13.30;99.90;;;;;;5029684;28;20479;-55
2022/05/18 02:36:10;;;;;;;3.77;1.73;;;13.30;99.90;;;;;;5032187;28;20838;-57
2022/05/18 02:38:37;;;;;;;1.70;1.60;;;13.30;99.90;;;;;;5032558;28;20445;-57
2022/05/18 02:41:02;;;;;;;3.70;1.77;;;13.30;99.90;;;;;;5033455;28;20414;-55
2022/05/18 02:43:30;;;;;;;3.10;1.40;;;13.30;99.90;;;;;;5032583;28;20452;-57
2022/05/18 02:46:10;;;;;;;1.60;1.50;;;13.40;99.90;;;;;;5032634;28;20195;-57
2022/05/18 02:48:36;;;;;;;5.37;1.93;;;13.40;99.90;;;;;;5032723;28;21116;-56
2022/05/18 02:51:03;;;;;;;3.07;1.90;;;13.30;99.90;;;;;;5030583;28;20437;-56
2022/05/18 02:53:29;;;;;;;3.20;1.80;;;13.30;99.90;;;;;;5032497;28;20461;-55
2022/05/18 02:56:06;;;;;;;4.40;1.27;;;13.30;99.90;;;;;;5032695;28;20448;-56
2022/05/18 02:58:50;;;;;;;5.17;1.60;;;13.30;99.90;;;;;;5032482;28;20933;-55
2022/05/18 03:01:22;;;;;;;6.40;1.97;;;13.40;99.90;;;;;;5025469;28;20524;-56
2022/05/18 03:03:48;;;;;;;2.37;1.50;;;13.40;99.90;;;;;;5032389;28;20436;-57
2022/05/18 03:06:17;;;;;;;4.20;2.27;;;13.30;99.90;;;;;;5032702;28;20410;-56
2022/05/18 03:08:44;;;;;;;10.17;1.70;;;13.30;99.90;;;;;;5030367;28;20426;-56
2022/05/18 03:11:10;;;;;;;4.83;1.90;;;13.30;99.90;;;;;;5032156;28;20516;-56
2022/05/18 03:13:36;;;;;;;6.17;1.50;;;13.30;99.90;;;;;;5032233;28;20476;-57
2022/05/18 03:16:02;;;;;;;3.20;1.60;;;13.30;99.90;;;;;;5031686;28;20434;-56
2022/05/18 03:18:29;;;;;;;3.70;1.90;;;13.30;99.90;;;;;;5032766;28;20322;-57
2022/05/18 03:23:39;;;;;;;8.00;1.77;;;13.20;99.90;;;;;;5033886;28;20457;-56
2022/05/18 03:26:17;;;;;;;4.00;1.70;;;13.30;99.90;;;;;;5032251;28;20532;-55
2022/05/18 03:28:44;;;;;;;2.00;1.60;;;13.30;99.90;;;;;;5033112;28;20198;-55
2022/05/18 03:31:10;;;;;;;4.60;1.50;;;13.40;99.90;;;;;;5033950;28;20464;-56
2022/05/18 03:33:36;;;;;;;3.77;1.73;;;13.50;99.90;;;;;;5037029;28;20998;-57
2022/05/18 03:36:04;;;;;;;2.33;1.70;;;13.50;99.90;;;;;;5033267;28;20430;-57
2022/05/18 03:38:30;;;;;;;5.43;2.00;;;13.50;99.90;;;;;;5032965;28;20433;-56
2022/05/18 03:40:55;;;;;;;3.10;1.60;;;13.40;99.90;;;;;;5032619;28;20437;-56
2022/05/18 03:43:21;;;;;;;3.83;1.60;;;13.40;99.90;;;;;;5032292;28;20208;-56
2022/05/18 03:45:47;;;;;;;7.93;1.80;;;13.40;99.90;;;;;;5027967;28;20632;-57
2022/05/18 03:48:15;;;;;;;2.97;2.00;;;13.40;99.90;;;;;;5031812;28;20432;-56
2022/05/18 03:50:43;;;;;;;4.00;1.77;;;13.40;99.90;;;;;;5032605;28;20492;-57
2022/05/18 03:53:10;;;;;;;4.00;2.30;;;13.50;99.90;;;;;;5031551;28;20542;-56
2022/05/18 03:55:39;;;;;;;5.83;1.90;;;13.40;99.90;;;;;;5031790;28;20970;-55
2022/05/18 03:58:05;;;;;;;2.63;2.30;;;13.40;99.90;;;;;;5033047;28;20418;-56
2022/05/18 04:00:31;;;;;;;5.57;2.20;;;13.40;99.90;;;;;;5032163;28;20532;-56
2022/05/18 04:02:57;;;;;;;5.70;2.00;;;13.40;99.90;;;;;;5032628;28;20513;-54
2022/05/18 04:05:23;;;;;;;2.87;1.87;;;13.50;99.90;;;;;;5032349;28;20998;-57
2022/05/18 04:07:49;;;;;;;5.00;1.70;;;13.50;99.90;;;;;;5032783;28;20461;-56
2022/05/18 04:10:16;;;;;;;3.47;2.10;;;13.50;99.90;;;;;;5032570;28;20205;-57
2022/05/18 04:12:43;;;;;;;4.20;1.83;;;13.50;99.90;;;;;;5031310;28;20893;-57
2022/05/18 04:15:10;;;;;;;2.30;2.10;;;13.50;99.90;;;;;;5032749;28;20442;-56
2022/05/18 04:17:36;;;;;;;2.60;2.07;;;13.50;99.90;;;;;;5030995;28;20429;-57
2022/05/18 04:20:04;;;;;;;2.90;1.97;;;13.60;99.90;;;;;;5031243;28;20434;-57
2022/05/18 04:22:30;;;;;;;3.90;1.87;;;13.60;99.90;;;;;;5031093;28;20179;-56
2022/05/18 04:24:55;;;;;;;3.90;1.97;;;13.70;99.90;;;;;;5030801;28;20936;-56
2022/05/18 04:27:21;;;;;;;2.67;1.90;;;13.70;99.90;;;;;;5030694;28;20437;-56
2022/05/18 04:29:46;;;;;;;5.63;2.17;;;13.80;99.90;;;;;;5030943;28;20664;-56
2022/05/18 04:32:12;;;;;;;2.80;2.00;;;13.90;99.90;;;;;;5030661;28;20214;-56
2022/05/18 04:34:38;;;;;;;7.30;2.53;;;14.00;99.90;;;;;;5028752;28;20282;-56
2022/05/18 04:37:04;;;;;;;9.90;2.40;;;14.10;99.90;;;;;;5033930;28;20181;-56
2022/05/18 04:39:30;;;;;;;2.37;2.00;;;14.20;99.90;;;;;;5034159;28;20249;-56
2022/05/18 04:41:55;;;;;;;1.90;1.70;;;14.40;99.90;;;;;;5030369;28;20429;-55
2022/05/18 04:44:21;;;;;;;5.57;2.33;;;14.60;99.90;;;;;;5022035;28;20485;-56
2022/05/18 04:46:46;;;;;;;6.87;2.10;;;14.80;99.90;;;;;;5027286;28;20198;-55
2022/05/18 04:49:13;;;;;;;13.13;1.97;;;14.80;99.90;;;;;;5030177;28;20274;-55
2022/05/18 04:51:39;;;;;;;5.40;2.20;;;14.90;99.90;;;;;;5041499;28;20190;-56
2022/05/18 04:54:05;;;;;;;3.53;1.90;;;15.00;99.90;;;;;;5029731;28;20437;-56
2022/05/18 04:56:30;;;;;;;4.53;2.30;;;15.10;99.90;;;;;;5029730;28;20426;-56
2022/05/18 04:58:56;;;;;;;5.40;2.13;;;15.30;99.90;;;;;;5030227;28;20210;-56
2022/05/18 05:01:24;;;;;;;3.07;2.40;;;15.40;99.90;;;;;;5030210;28;20179;-57
2022/05/18 05:03:50;;;;;;;2.70;1.97;;;15.40;99.90;;;;;;5044857;28;20218;-55
2022/05/18 05:06:15;;;;;;;3.43;2.07;;;15.50;99.90;;;;;;5030141;28;20457;-56
2022/05/18 05:08:41;;;;;;;5.50;2.23;;;15.50;99.90;;;;;;5027996;28;20657;-56
2022/05/18 05:11:07;;;;;;;3.30;2.20;;;15.50;99.90;;;;;;5029851;28;20600;-56
2022/05/18 05:13:34;;;;;;;9.00;2.40;;;15.50;99.90;;;;;;5028515;28;20591;-55
2022/05/18 05:16:05;;;;;;;2.40;2.20;;;15.60;99.90;;;;;;5029807;28;20417;-56
2022/05/18 05:18:31;;;;;;;5.23;2.30;;;15.70;99.90;;;;;;5029639;28;20438;-55
2022/05/18 05:20:58;;;;;;;2.27;2.00;;;15.80;99.90;;;;;;5029727;28;20433;-55
2022/05/18 05:23:24;;;;;;;3.00;2.30;;;15.90;99.90;;;;;;5028925;28;20956;-55
2022/05/18 05:25:51;;;;;;;11.53;2.57;;;16.00;99.90;;;;;;5029497;28;20464;-55
2022/05/18 05:28:16;;;;;;;4.40;2.27;;;16.10;99.90;;;;;;5029724;28;20444;-57
2022/05/18 05:30:42;;;;;;;5.50;2.50;;;16.20;99.90;;;;;;5029826;28;20900;-55
2022/05/18 05:33:07;;;;;;;2.90;2.60;;;16.40;99.90;;;;;;5028474;28;20219;-56
2022/05/18 05:35:34;;;;;;;6.00;2.90;;;16.50;99.90;;;;;;5029693;28;20183;-55
2022/05/18 05:38:00;;;;;;;3.10;2.80;;;16.70;99.90;;;;;;5029410;28;20187;-57
2022/05/18 05:40:25;;;;;;;5.07;2.80;;;16.70;99.90;;;;;;5028380;28;20565;-54
2022/05/18 05:42:51;;;;;;;7.67;2.80;;;16.70;99.90;;;;;;5033348;28;20237;-56
2022/05/18 05:45:16;;;;;;;3.27;2.90;;;16.60;99.90;;;;;;5028198;28;20664;-56
2022/05/18 05:47:42;;;;;;;7.50;2.90;;;16.80;99.90;;;;;;5029883;28;20256;-56
2022/05/18 05:50:08;;;;;;;4.43;3.50;;;16.90;99.90;;;;;;5029169;28;20245;-56
2022/05/18 05:52:35;;;;;;;6.60;2.60;;;17.10;99.90;;;;;;5030041;28;20714;-55
2022/05/18 05:55:00;;;;;;;6.97;3.13;;;17.20;99.90;;;;;;5029083;28;20445;-55
2022/05/18 05:57:26;;;;;;;4.33;3.17;;;17.20;99.90;;;;;;5027897;28;20191;-53
2022/05/18 05:59:52;;;;;;;5.40;3.17;;;17.20;99.90;;;;;;5025174;28;20282;-54
2022/05/18 06:02:19;;;;;;;6.47;3.30;;;17.10;99.90;;;;;;5028029;28;20810;-56
2022/05/18 06:04:44;;;;;;;5.10;2.90;;;17.00;99.90;;;;;;5029136;28;20197;-55
2022/05/18 06:07:10;;;;;;;6.73;3.27;;;17.10;99.90;;;;;;5028733;28;20437;-56
2022/05/18 06:09:36;;;;;;;6.70;3.37;;;17.10;99.90;;;;;;5029326;28;20257;-57
2022/05/18 06:12:02;;;;;;;5.83;3.40;;;17.00;99.90;;;;;;5028639;28;20285;-56
2022/05/18 06:14:27;;;;;;;6.40;3.80;;;16.90;99.90;;;;;;5027741;28;20175;-56
2022/05/18 06:16:54;;;;;;;13.30;4.20;;;16.80;99.90;;;;;;5025580;28;21221;-55
2022/05/18 06:19:19;;;;;;;7.50;3.63;;;16.70;99.90;;;;;;5029449;28;20183;-55
2022/05/18 06:21:47;;;;;;;6.37;3.63;;;16.80;99.90;;;;;;5029500;28;20418;-56
2022/05/18 06:24:14;;;;;;;7.10;3.17;;;16.80;99.90;;;;;;5027706;28;20202;-57
2022/05/18 06:26:40;;;;;;;6.77;3.93;;;16.80;99.90;;;;;;5028721;28;20421;-56
2022/05/18 06:29:06;;;;;;;5.63;3.40;;;16.90;99.90;;;;;;5028863;28;20433;-56
2022/05/18 06:31:31;;;;;;;6.33;3.40;;;17.40;99.90;;;;;;5027059;28;20215;-55
2022/05/18 06:33:58;;;;;;;8.60;3.90;;;18.00;99.90;;;;;;5028778;28;20282;-56
2022/05/18 06:36:24;;;;;;;7.23;3.40;;;18.50;99.90;;;;;;5029408;28;20183;-57
2022/05/18 06:38:49;;;;;;;7.50;3.53;;;18.90;99.90;;;;;;5028098;28;20902;-56
2022/05/18 06:41:23;;;;;;;7.67;4.00;;;19.20;99.90;;;;;;5029245;28;20881;-56
2022/05/18 06:43:51;;;;;;;6.23;3.90;;;19.30;99.90;;;;;;5026873;28;20226;-56
2022/05/18 06:46:18;;;;;;;8.70;4.00;;;19.20;99.90;;;;;;5029892;28;20417;-54
2022/05/18 06:48:44;;;;;;;9.53;3.73;;;19.10;99.90;;;;;;5032542;28;20533;-55
2022/05/18 06:51:10;;;;;;;5.80;4.00;;;19.00;99.90;;;;;;5028900;28;20505;-56
2022/05/18 06:53:35;;;;;;;5.57;4.30;;;18.80;99.90;;;;;;5027888;28;20198;-57
2022/05/18 06:56:02;;;;;;;6.10;4.13;;;18.60;99.90;;;;;;5028764;28;20810;-56
2022/05/18 06:58:27;;;;;;;5.53;3.90;;;18.60;99.90;;;;;;5028639;28;20241;-54
2022/05/18 07:00:53;;;;;;;6.07;4.10;;;18.50;99.90;;;;;;5028524;28;20459;-56
2022/05/18 07:03:18;;;;;;;7.27;4.60;;;18.40;99.90;;;;;;5029045;28;20189;-56
2022/05/18 07:05:45;;;;;;;6.07;4.10;;;18.30;99.90;;;;;;5027355;28;20697;-56
2022/05/18 07:08:11;;;;;;;9.07;4.40;;;18.20;99.90;;;;;;5028848;28;20644;-55
2022/05/18 07:10:36;;;;;;;6.80;4.63;;;18.00;99.90;;;;;;5043655;28;20437;-56
2022/05/18 07:13:04;;;;;;;6.93;4.87;;;17.90;99.90;;;;;;5028084;28;20234;-53
2022/05/18 07:15:30;;;;;;;8.93;5.03;;;17.70;99.90;;;;;;5025949;28;20194;-56
2022/05/18 07:17:55;;;;;;;10.80;4.00;;;17.60;99.90;;;;;;5029156;28;20794;-56
2022/05/18 07:20:21;;;;;;;5.90;4.50;;;17.60;99.90;;;;;;5028812;28;20996;-55
2022/05/18 07:22:47;;;;;;;6.07;4.97;;;17.50;99.90;;;;;;5031789;28;20195;-56
2022/05/18 07:25:12;;;;;;;5.23;4.73;;;17.40;99.90;;;;;;5029900;28;21375;-56
2022/05/18 07:27:39;;;;;;;9.10;4.70;;;17.30;99.90;;;;;;5031984;28;20267;-54
2022/05/18 07:30:06;;;;;;;6.97;4.40;;;17.20;99.90;;;;;;5032415;28;20245;-56
2022/05/18 07:32:31;;;;;;;6.60;5.10;;;17.20;99.90;;;;;;5032139;28;20546;-56
2022/05/18 07:34:57;;;;;;;12.13;5.33;;;17.30;99.90;;;;;;5037342;28;20428;-56
2022/05/18 07:37:23;;;;;;;7.50;4.90;;;17.40;99.90;;;;;;5032353;28;20205;-56
2022/05/18 07:39:50;;;;;;;6.00;4.63;;;17.50;99.90;;;;;;5037299;28;20211;-56
2022/05/18 07:42:16;;;;;;;5.67;4.87;;;17.60;99.90;;;;;;5028339;28;20862;-55
2022/05/18 07:44:42;;;;;;;9.17;5.57;;;17.60;99.90;;;;;;5027075;28;20445;-55
2022/05/18 07:47:08;;;;;;;7.77;5.57;;;17.70;99.90;;;;;;5022120;28;20495;-56
2022/05/18 07:49:39;;;;;;;11.00;4.90;;;17.80;99.90;;;;;;5024474;28;20931;-55
2022/05/18 07:52:06;;;;;;;6.57;4.80;;;18.10;99.90;;;;;;5032712;28;20473;-55
2022/05/18 07:54:32;;;;;;;10.00;5.33;;;18.50;99.90;;;;;;5024930;28;20437;-55
2022/05/18 07:56:58;;;;;;;10.07;5.20;;;18.80;99.90;;;;;;5029539;28;20441;-55
2022/05/18 07:59:24;;;;;;;10.80;5.87;;;18.80;99.90;;;;;;5027896;28;20442;-56
2022/05/18 08:01:51;;;;;;;8.97;5.73;;;18.70;99.90;;;;;;5035086;28;20433;-53
2022/05/18 08:04:17;;;;;;;8.23;5.20;;;18.70;99.90;;;;;;5029273;28;20456;-54
2022/05/18 08:06:44;;;;;;;6.17;5.57;;;18.90;99.90;;;;;;5031863;28;20437;-55
2022/05/18 08:09:11;;;;;;;10.53;6.03;;;19.20;99.90;;;;;;5029820;28;20453;-55
2022/05/18 08:17:06;;;;;;;9.43;5.50;;;21.20;99.90;;;;;;5021155;28;20441;-56
2022/05/18 08:19:32;;;;;;;9.40;5.13;;;21.80;99.90;;;;;;5035585;28;20465;-55
2022/05/18 08:21:58;;;;;;;16.33;6.03;;;22.20;99.90;;;;;;5033142;28;20452;-56
2022/05/18 08:24:25;;;;;;;9.97;4.80;;;22.50;99.90;;;;;;5025299;28;20467;-55
2022/05/18 08:26:51;;;;;;;15.00;5.47;;;22.60;99.90;;;;;;5026734;28;20508;-55
2022/05/18 08:29:17;;;;;;;8.20;5.40;;;22.60;99.90;;;;;;5034724;28;20448;-55
2022/05/18 08:31:43;;;;;;;8.07;5.13;;;22.70;99.90;;;;;;5033103;28;20447;-55
2022/05/18 08:34:09;;;;;;;9.40;5.80;;;23.00;99.90;;;;;;5020450;28;20442;-55
2022/05/18 08:36:36;;;;;;;18.60;6.00;;;23.60;99.90;;;;;;5030475;28;20809;-55
2022/05/18 08:39:03;;;;;;;10.50;5.60;;;24.00;99.90;;;;;;5029435;28;20499;-55
2022/05/18 08:41:36;;;;;;;7.90;4.83;;;24.00;99.90;;;;;;5028930;28;20953;-55
2022/05/18 08:44:06;;;;;;;11.60;6.47;;;24.50;99.90;;;;;;5029005;28;20430;-56
2022/05/18 08:46:38;;;;;;;12.83;5.93;;;24.70;99.90;;;;;;5030601;28;20414;-55
2022/05/18 08:49:07;;;;;;;13.43;6.60;;;24.90;99.90;;;;;;5021892;28;20437;-55
2022/05/18 08:51:40;;;;;;;10.97;5.63;;;24.70;99.90;;;;;;5032871;28;20508;-55
2022/05/18 08:54:12;;;;;;;8.17;6.10;;;24.90;99.90;;;;;;5024890;28;20482;-55
2022/05/18 08:56:43;;;;;;;13.43;6.47;;;25.10;99.90;;;;;;5018983;28;20524;-54
2022/05/18 08:59:19;;;;;;;8.53;5.67;;;25.20;99.90;;;;;;5032846;28;20464;-55
2022/05/18 09:01:49;;;;;;;7.90;7.10;;;25.40;99.90;;;;;;5028291;28;20437;-54
2022/05/18 09:04:24;;;;;;;7.20;5.80;;;25.70;99.90;;;;;;5030495;28;20456;-54
2022/05/18 09:06:59;;;;;;;8.20;6.47;;;26.10;99.90;;;;;;5027971;28;20444;-55
2022/05/18 09:12:36;;;;;;;6.43;5.83;;;26.30;99.90;;;;;;5026589;28;20508;-53
2022/05/18 09:15:07;;;;;;;9.17;6.47;;;26.60;99.90;;;;;;5027684;28;20441;-55
2022/05/18 09:17:59;;;;;;;7.17;6.47;;;26.80;99.90;;;;;;5030768;28;20529;-56
2022/05/18 09:20:46;;;;;;;8.37;6.40;;;26.90;99.90;;;;;;5028953;28;20523;-55
2022/05/18 09:23:40;;;;;;;13.20;7.20;;;27.40;99.90;;;;;;5031875;28;20535;-55
2022/05/18 09:26:28;;;;;;;9.40;7.67;;;27.60;99.90;;;;;;5030386;28;20520;-55
2022/05/18 09:29:26;;;;;;;7.77;6.50;;;27.20;99.90;;;;;;5032461;28;20473;-55
2022/05/18 09:31:53;;;;;;;8.27;7.50;;;27.20;99.90;;;;;;5028448;28;20446;-54
2022/05/18 09:35:06;;;;;;;13.97;8.00;;;27.30;99.90;;;;;;5029372;28;20448;-54
2022/05/18 09:37:38;;;;;;;8.60;7.70;;;27.00;99.90;;;;;;5027832;28;20452;-55
2022/05/18 09:40:28;;;;;;;11.10;7.40;;;27.00;99.90;;;;;;5036199;28;20437;-55
2022/05/18 09:43:06;;;;;;;9.70;7.17;;;27.20;99.90;;;;;;5025136;28;20437;-54
2022/05/18 09:45:37;;;;;;;8.70;7.23;;;27.70;99.90;;;;;;5029212;28;21081;-55
2022/05/18 09:48:11;;;;;;;11.13;7.57;;;27.90;99.90;;;;;;5027373;28;20526;-55
2022/05/18 09:50:41;;;;;;;9.10;8.20;;;28.00;99.90;;;;;;5035304;28;20606;-53
2022/05/18 09:53:08;;;;;;;10.57;8.00;;;28.10;99.90;;;;;;5024384;28;20871;-54
2022/05/18 09:55:35;;;;;;;9.50;7.40;;;28.10;99.90;;;;;;5028750;28;20544;-54
2022/05/18 09:58:20;;;;;;;10.80;8.00;;;27.90;99.90;;;;;;5035145;28;20440;-50
2022/05/18 10:00:46;;;;;;;13.97;7.70;;;28.10;99.90;;;;;;5033970;28;20438;-50
2022/05/18 10:08:57;;;;;;;10.90;7.87;;;28.70;99.90;;;;;;5032942;28;20449;-51
2022/05/18 10:11:34;;;;;;;10.13;8.17;;;28.90;99.90;;;;;;5031643;28;20488;-50
2022/05/18 10:14:08;;;;;;;12.63;9.47;;;29.20;99.90;;;;;;5027598;28;20473;-50
2022/05/18 10:17:06;;;;;;;13.90;8.00;;;29.20;99.90;;;;;;5031956;28;20436;-50
2022/05/18 10:19:52;;;;;;;9.20;8.47;;;29.30;99.90;;;;;;5027644;28;20930;-50
2022/05/18 10:22:23;;;;;;;10.20;7.87;;;29.70;99.90;;;;;;5027977;28;20448;-50
2022/05/18 10:25:10;;;;;;;9.67;7.80;;;29.90;99.90;;;;;;5027924;28;20438;-51
2022/05/18 10:27:44;;;;;;;7.97;7.27;;;30.10;99.90;;;;;;5025271;28;20784;-51
2022/05/18 10:30:37;;;;;;;8.63;7.73;;;30.30;99.90;;;;;;5024061;28;20535;-53
2022/05/18 10:33:22;;;;;;;12.63;8.20;;;30.10;99.90;;;;;;5021491;28;20943;-52
2022/05/18 10:35:52;;;;;;;9.67;7.43;;;30.10;99.90;;;;;;5028667;28;20791;-53
2022/05/18 10:38:32;;;;;;;12.83;8.53;;;30.30;99.90;;;;;;5028675;28;20421;-53
2022/05/18 10:41:04;;;;;;;13.83;8.70;;;30.50;99.90;;;;;;5025714;28;20477;-53
2022/05/18 10:43:35;;;;;;;12.73;8.40;;;30.50;99.90;;;;;;5028684;28;20433;-54
2022/05/18 10:46:09;;;;;;;15.00;9.17;;;30.20;99.90;;;;;;5028248;28;20438;-53
2022/05/18 10:48:36;;;;;;;12.23;8.37;;;30.10;99.90;;;;;;5026558;28;20906;-53
2022/05/18 10:51:11;;;;;;;11.57;9.23;;;30.20;99.90;;;;;;5028691;28;20445;-52
2022/05/18 10:53:45;;;;;;;11.37;9.13;;;30.40;99.90;;;;;;5028702;28;20481;-53
2022/05/18 10:56:25;;;;;;;18.83;8.80;;;30.60;99.90;;;;;;5031497;28;20520;-53
2022/05/18 10:59:25;;;;;;;14.33;9.67;;;30.60;99.90;;;;;;5031571;28;20433;-54
2022/05/18 11:02:06;;;;;;;9.27;8.37;;;30.70;99.90;;;;;;5032501;28;20993;-53
2022/05/18 11:04:50;;;;;;;9.73;7.93;;;30.60;99.90;;;;;;5031596;28;20465;-53
2022/05/18 11:07:21;;;;;;;15.40;9.93;;;30.80;99.90;;;;;;5036739;28;20416;-53
2022/05/18 11:09:47;;;;;;;9.10;8.20;;;30.90;99.90;;;;;;5032204;28;20888;-53
2022/05/18 11:12:42;;;;;;;11.57;9.00;;;30.80;99.90;;;;;;5031808;28;20492;-53
2022/05/18 11:15:09;;;;;;;10.93;9.83;;;30.80;99.90;;;;;;5032073;28;20653;-53
2022/05/18 11:17:53;;;;;;;11.70;8.20;;;30.80;99.90;;;;;;5032117;28;20449;-54
2022/05/18 11:20:50;;;;;;;12.40;9.70;;;30.70;99.90;;;;;;5031563;28;20422;-55
2022/05/18 11:23:35;;;;;;;10.57;8.80;;;30.90;99.90;;;;;;5026712;28;20425;-53
2022/05/18 11:26:19;;;;;;;9.30;8.37;;;31.30;99.90;;;;;;5028593;28;20271;-54
2022/05/18 11:28:57;;;;;;;12.17;9.00;;;31.60;99.90;;;;;;5029786;28;20457;-54
2022/05/18 11:31:35;;;;;;;9.23;8.50;;;31.80;99.90;;;;;;5029165;28;20437;-54
2022/05/18 11:34:10;;;;;;;9.70;8.20;;;32.00;99.90;;;;;;5031640;28;20496;-54
2022/05/18 11:36:51;;;;;;;10.77;8.23;;;32.20;99.90;;;;;;5031651;28;20504;-54
2022/05/18 11:39:50;;;;;;;9.87;8.47;;;32.30;99.90;;;;;;5026646;28;20981;-54
2022/05/18 11:42:53;;;;;;;10.63;9.20;;;32.50;99.90;;;;;;5030622;28;20441;-55
2022/05/18 11:45:25;;;;;;;9.83;8.80;;;32.80;99.90;;;;;;5033924;28;20449;-55
2022/05/18 11:48:26;;;;;;;15.23;8.63;;;32.50;99.90;;;;;;5031369;28;20425;-54
2022/05/18 11:51:15;;;;;;;10.37;9.10;;;32.20;99.90;;;;;;5031515;28;20809;-55
2022/05/18 11:53:56;;;;;;;9.90;8.80;;;32.80;99.90;;;;;;5030717;28;20496;-53
2022/05/18 11:56:25;;;;;;;11.27;9.57;;;33.00;99.90;;;;;;5027094;28;20537;-54
2022/05/18 11:59:30;;;;;;;10.80;9.63;;;32.80;99.90;;;;;;5031301;28;20923;-54
2022/05/18 12:02:13;;;;;;;9.87;8.87;;;32.70;99.90;;;;;;5037461;28;20484;-55
2022/05/18 12:05:23;;;;;;;9.60;8.70;;;32.60;99.90;;;;;;5031239;28;20491;-55
2022/05/18 12:08:24;;;;;;;8.03;7.23;;;32.70;99.90;;;;;;5031222;28;20471;-53
2022/05/18 12:10:54;;;;;;;12.60;8.10;;;32.70;99.90;;;;;;5030538;28;20430;-54
2022/05/18 12:13:32;;;;;;;8.87;8.03;;;32.80;99.90;;;;;;5033067;28;20497;-55
2022/05/18 12:16:01;;;;;;;8.57;7.67;;;33.20;99.90;;;;;;5027763;28;20978;-54
2022/05/18 12:18:44;;;;;;;10.77;7.70;;;33.50;99.90;;;;;;5025214;28;20430;-54
2022/05/18 12:21:21;;;;;;;11.37;7.70;;;33.40;99.90;;;;;;5030068;28;20596;-54
2022/05/18 12:23:50;;;;;;;9.40;7.57;;;33.20;99.90;;;;;;5028969;28;20441;-55
2022/05/18 12:26:19;;;;;;;10.13;7.00;;;32.80;99.90;;;;;;5030673;28;20813;-55
2022/05/18 12:28:45;;;;;;;9.17;7.43;;;32.80;99.90;;;;;;5030992;28;21846;-55
2022/05/18 12:31:12;;;;;;;7.33;6.67;;;32.70;99.90;;;;;;5029886;28;20445;-54
2022/05/18 12:33:55;;;;;;;9.03;6.27;;;32.90;99.90;;;;;;5028779;28;20469;-55
2022/05/18 12:36:57;;;;;;;9.73;7.20;;;32.80;99.90;;;;;;5029062;28;20453;-54
2022/05/18 12:39:23;;;;;;;7.10;6.43;;;32.10;99.90;;;;;;5027626;28;20499;-55
2022/05/18 12:41:54;;;;;;;8.90;6.87;;;32.30;99.90;;;;;;5036747;28;20514;-54
2022/05/18 12:44:39;;;;;;;6.60;5.90;;;32.70;99.90;;;;;;5027921;28;20633;-56
2022/05/18 12:47:24;;;;;;;6.70;5.97;;;32.80;99.90;;;;;;5028104;28;20461;-55
2022/05/18 12:50:15;;;;;;;8.00;7.07;;;32.60;99.90;;;;;;5024410;28;20420;-55
2022/05/18 12:52:43;;;;;;;7.87;6.93;;;32.00;99.90;;;;;;5030518;28;20472;-55
2022/05/18 12:55:15;;;;;;;7.87;6.60;;;31.40;99.90;;;;;;5028666;28;20408;-54
2022/05/18 12:57:41;;;;;;;8.23;6.47;;;31.60;99.90;;;;;;5030488;28;20763;-55
2022/05/18 13:00:24;;;;;;;9.83;6.67;;;32.10;99.90;;;;;;5029798;28;20421;-56
2022/05/18 13:03:00;;;;;;;7.00;6.40;;;32.20;99.90;;;;;;5032850;28;20206;-55
2022/05/18 13:05:25;;;;;;;9.67;6.03;;;32.00;99.90;;;;;;5031036;28;20543;-54
2022/05/18 13:07:59;;;;;;;7.10;6.50;;;32.00;99.90;;;;;;5031971;28;20528;-55
2022/05/18 13:10:28;;;;;;;7.00;6.23;;;31.80;99.90;;;;;;5027865;28;20217;-55
2022/05/18 13:13:00;;;;;;;7.83;6.47;;;31.60;99.90;;;;;;5029866;28;21019;-55
2022/05/18 13:15:51;;;;;;;6.93;6.23;;;31.60;99.90;;;;;;5029453;28;20456;-55
2022/05/18 13:18:31;;;;;;;8.00;6.33;;;32.30;99.90;;;;;;5030305;28;20495;-54
2022/05/18 13:21:16;;;;;;;7.60;6.53;;;32.70;99.90;;;;;;5021847;28;20446;-55
2022/05/18 13:23:52;;;;;;;8.60;6.50;;;31.80;99.90;;;;;;5026494;28;20456;-56